Reno, Illinois
Current Conditions -  °F | °C
As of 2:35 PM on Thursday 29 Jan 2015 (Local Time) from K3LF Reporting Station
Overcast Overcast  
Wind Chill: 26°   Ceiling: 1900
Heat Index: 36°   Visibility: 10mi
Dew Point: 32°   Wind: 17mph
Humidity: 86%   Direction: 310°NW
Pressure: 30.17"   Gusts: 23mph
Location:  38.9523°N, 89.5609°W
Report Text: K3LF 292035Z AUTO 31015G20KT 10SM SCT014 OVC019 02/00 A3017 RMK AO2 T00220000
Loading
Personal Weather Stations






























Interactive Weather Map New forecast layout! Learn more

10-Day Weather Forecast

Advertisements
Track Severe Weather on mobile